Time;durP1;ratioP1;P1;durP2;ratioP2;P2;SDS_P1;SDS_P2;PMS_P1;PMS_P2;Temp;Humidity;BMP_temperature;BMP_pressure;BME280_temperature;BME280_humidity;BME280_pressure;Samples;Min_cycle;Max_cycle;Signal;HPM_P1;HPM_P2
2022/07/21 00:02:20;;;;;;;18.40;16.50;;;19.20;99.90;;;;;;5093375;28;20183;-76
2022/07/21 00:04:46;;;;;;;18.63;16.83;;;19.20;99.90;;;;;;5093462;28;20168;-76
2022/07/21 00:07:12;;;;;;;18.05;16.25;;;19.20;99.90;;;;;;5092770;28;20627;-76
2022/07/21 00:09:39;;;;;;;18.67;16.20;;;19.20;99.90;;;;;;5092726;28;20215;-75
2022/07/21 00:12:05;;;;;;;17.70;15.38;;;19.30;99.90;;;;;;5093245;28;20175;-75
2022/07/21 00:14:31;;;;;;;18.65;16.70;;;19.20;99.90;;;;;;5074572;28;20592;-76
2022/07/21 00:16:56;;;;;;;16.75;15.15;;;19.20;99.90;;;;;;5093194;28;20168;-75
2022/07/21 00:19:22;;;;;;;18.08;16.27;;;19.20;99.90;;;;;;5093055;28;20217;-75
2022/07/21 00:21:47;;;;;;;17.73;15.93;;;19.20;99.90;;;;;;5093284;28;20657;-76
2022/07/21 00:24:13;;;;;;;17.23;15.38;;;19.20;99.90;;;;;;5092852;28;20229;-75
2022/07/21 00:26:39;;;;;;;17.83;15.93;;;19.20;99.90;;;;;;5074821;28;20211;-76
2022/07/21 00:29:05;;;;;;;17.40;15.60;;;19.20;99.90;;;;;;5092957;28;20559;-75
2022/07/21 00:31:30;;;;;;;17.13;15.10;;;19.10;99.90;;;;;;5093241;28;20664;-75
2022/07/21 00:33:56;;;;;;;18.00;15.18;;;19.10;99.90;;;;;;5074994;28;20176;-76
2022/07/21 00:36:22;;;;;;;18.63;15.70;;;19.10;99.90;;;;;;5093066;28;20164;-75
2022/07/21 00:38:48;;;;;;;17.95;16.13;;;19.10;99.90;;;;;;5074723;28;20249;-75
2022/07/21 00:41:14;;;;;;;16.23;14.67;;;19.10;99.90;;;;;;5093117;28;20179;-76
2022/07/21 00:43:40;;;;;;;18.48;15.32;;;19.10;99.90;;;;;;5092986;28;20172;-75
2022/07/21 00:46:06;;;;;;;16.40;14.80;;;19.10;99.90;;;;;;5093327;28;20524;-75
2022/07/21 00:48:31;;;;;;;20.00;16.23;;;19.10;99.90;;;;;;5093068;28;20184;-75
2022/07/21 00:50:57;;;;;;;16.20;14.60;;;19.20;99.90;;;;;;5092965;28;20179;-75
2022/07/21 00:53:23;;;;;;;18.05;16.27;;;19.20;99.90;;;;;;5074498;28;20225;-76
2022/07/21 00:55:48;;;;;;;17.35;15.73;;;19.20;99.90;;;;;;5074878;28;20164;-76
2022/07/21 00:58:14;;;;;;;17.90;16.10;;;19.20;99.90;;;;;;5092765;28;20178;-75
2022/07/21 01:00:40;;;;;;;19.48;16.50;;;19.20;99.90;;;;;;5074813;28;20178;-76
2022/07/21 01:03:07;;;;;;;16.87;14.77;;;19.10;99.90;;;;;;5092814;28;20168;-76
2022/07/21 01:05:34;;;;;;;19.33;16.00;;;19.10;99.90;;;;;;5092614;28;20174;-74
2022/07/21 01:08:02;;;;;;;18.90;16.30;;;19.00;99.90;;;;;;5074354;28;20574;-76
2022/07/21 01:10:29;;;;;;;20.38;16.60;;;19.00;99.90;;;;;;5095131;28;20229;-76
2022/07/21 01:12:55;;;;;;;18.40;16.40;;;19.00;99.90;;;;;;5078429;28;20179;-76
2022/07/21 01:15:22;;;;;;;18.33;15.47;;;18.90;99.90;;;;;;5096605;28;20175;-75
2022/07/21 01:17:48;;;;;;;18.13;16.30;;;18.90;99.90;;;;;;5096661;28;20183;-75
2022/07/21 01:20:17;;;;;;;17.80;15.98;;;18.90;99.90;;;;;;5096588;28;20176;-76
2022/07/21 01:22:45;;;;;;;17.80;15.90;;;18.90;99.90;;;;;;5096040;28;20216;-75
2022/07/21 01:25:12;;;;;;;17.17;15.40;;;18.80;99.90;;;;;;5077736;28;20164;-75
2022/07/21 01:27:38;;;;;;;19.17;16.43;;;18.80;99.90;;;;;;5096279;28;20208;-75
2022/07/21 01:30:07;;;;;;;20.60;16.30;;;18.80;99.90;;;;;;5096255;28;20164;-75
2022/07/21 01:32:34;;;;;;;17.90;16.10;;;18.70;99.90;;;;;;5096320;28;20179;-75
2022/07/21 01:35:00;;;;;;;18.63;16.73;;;18.70;99.90;;;;;;5096216;28;20159;-75
2022/07/21 01:37:29;;;;;;;21.80;17.00;;;18.70;99.90;;;;;;5095794;28;20512;-75
2022/07/21 01:42:39;;;;;;;17.65;15.85;;;18.80;99.90;;;;;;5096168;28;20326;-75
2022/07/21 01:45:05;;;;;;;17.80;15.90;;;18.80;99.90;;;;;;5095883;28;20254;-75
2022/07/21 01:47:32;;;;;;;17.08;15.38;;;18.80;99.90;;;;;;5095823;28;20207;-76
2022/07/21 01:49:57;;;;;;;17.47;15.70;;;18.80;99.90;;;;;;5077874;28;20623;-76
2022/07/21 01:52:23;;;;;;;17.25;15.52;;;18.90;99.90;;;;;;5095414;28;20171;-76
2022/07/21 01:54:50;;;;;;;21.10;14.90;;;18.80;99.90;;;;;;5095922;28;20168;-76
2022/07/21 01:57:16;;;;;;;16.83;15.02;;;18.80;99.90;;;;;;5077855;28;20255;-75
2022/07/21 01:59:41;;;;;;;16.80;15.03;;;18.80;99.90;;;;;;5095782;28;20631;-76
2022/07/21 02:02:07;;;;;;;16.20;14.65;;;18.80;99.90;;;;;;5095725;28;20246;-75
2022/07/21 02:04:34;;;;;;;17.00;15.15;;;18.80;99.90;;;;;;5077455;28;20172;-76
2022/07/21 02:07:00;;;;;;;17.15;14.18;;;18.80;99.90;;;;;;5094814;28;20239;-75
2022/07/21 02:09:26;;;;;;;16.02;14.25;;;18.80;99.90;;;;;;5095491;28;20229;-75
2022/07/21 02:11:52;;;;;;;16.23;13.27;;;18.80;99.90;;;;;;5095531;28;20176;-75
2022/07/21 02:14:18;;;;;;;19.57;14.60;;;18.90;99.90;;;;;;5095486;28;20649;-75
2022/07/21 02:16:43;;;;;;;18.90;14.10;;;18.80;99.90;;;;;;5095486;28;20266;-75
2022/07/21 02:19:09;;;;;;;17.47;14.80;;;18.80;99.90;;;;;;5077547;28;20184;-75
2022/07/21 02:21:35;;;;;;;18.67;14.13;;;18.80;99.90;;;;;;5094585;28;20168;-75
2022/07/21 02:24:01;;;;;;;15.87;14.20;;;18.90;99.90;;;;;;5077021;28;20602;-75
2022/07/21 02:26:26;;;;;;;16.43;13.73;;;18.90;99.90;;;;;;5094922;28;20235;-75
2022/07/21 02:28:52;;;;;;;18.40;13.52;;;18.90;99.90;;;;;;5095332;28;20218;-74
2022/07/21 02:31:18;;;;;;;15.40;13.40;;;18.90;99.90;;;;;;5095207;28;20649;-75
2022/07/21 02:33:43;;;;;;;16.88;13.75;;;19.00;99.90;;;;;;5095150;28;20168;-75
2022/07/21 02:36:09;;;;;;;16.45;13.50;;;18.90;99.90;;;;;;5094419;28;20168;-75
2022/07/21 02:38:35;;;;;;;14.90;13.20;;;18.90;99.90;;;;;;5076833;28;20266;-75
2022/07/21 02:41:01;;;;;;;15.97;12.40;;;18.90;99.90;;;;;;5076732;28;20187;-75
2022/07/21 02:43:26;;;;;;;14.35;12.85;;;18.90;99.90;;;;;;5094859;28;20168;-75
2022/07/21 02:45:52;;;;;;;16.15;12.30;;;18.90;99.90;;;;;;5094514;28;20530;-75
2022/07/21 02:48:18;;;;;;;14.00;11.57;;;18.90;99.90;;;;;;5094560;28;20207;-75
2022/07/21 02:50:44;;;;;;;13.52;11.65;;;18.90;99.90;;;;;;5094135;28;20168;-75
2022/07/21 02:53:13;;;;;;;14.98;11.25;;;19.00;99.90;;;;;;5094667;28;20660;-75
2022/07/21 02:55:39;;;;;;;15.23;11.57;;;19.00;99.90;;;;;;5094556;28;20176;-75
2022/07/21 02:58:15;;;;;;;13.53;10.83;;;19.00;99.90;;;;;;5076367;28;20228;-75
2022/07/21 03:00:54;;;;;;;15.52;11.25;;;18.90;99.90;;;;;;5094609;28;20167;-76
2022/07/21 03:03:21;;;;;;;17.90;11.10;;;18.90;99.90;;;;;;5094097;28;20183;-75
2022/07/21 03:05:48;;;;;;;13.23;10.95;;;18.90;99.90;;;;;;5094099;28;20244;-75
2022/07/21 03:08:14;;;;;;;14.90;10.43;;;18.90;99.90;;;;;;5094071;28;20212;-75
2022/07/21 03:10:40;;;;;;;16.27;11.15;;;18.80;99.90;;;;;;5076122;28;20537;-75
2022/07/21 03:13:06;;;;;;;16.93;10.20;;;18.90;99.90;;;;;;5094090;28;20179;-75
2022/07/21 03:15:32;;;;;;;14.20;10.65;;;18.90;99.90;;;;;;5094170;28;20495;-76
2022/07/21 03:17:58;;;;;;;11.77;10.57;;;18.90;99.90;;;;;;5093729;28;20183;-75
2022/07/21 03:20:25;;;;;;;13.48;10.05;;;18.90;99.90;;;;;;5094235;28;20176;-75
2022/07/21 03:22:51;;;;;;;13.07;9.75;;;18.80;99.90;;;;;;5094124;28;20172;-75
2022/07/21 03:25:18;;;;;;;13.87;10.03;;;18.80;99.90;;;;;;5093885;28;20180;-75
2022/07/21 03:27:44;;;;;;;15.10;10.07;;;18.80;99.90;;;;;;5093764;28;20234;-74
2022/07/21 03:30:11;;;;;;;12.97;9.57;;;18.70;99.90;;;;;;5093928;28;20176;-75
2022/07/21 03:32:36;;;;;;;13.77;9.80;;;18.80;99.90;;;;;;5092891;28;20247;-75
2022/07/21 03:35:04;;;;;;;15.15;9.85;;;18.70;99.90;;;;;;5075706;28;20188;-75
2022/07/21 03:37:30;;;;;;;12.23;9.10;;;18.80;99.90;;;;;;5093823;28;20183;-75
2022/07/21 03:39:56;;;;;;;11.98;9.07;;;18.80;99.90;;;;;;5093694;28;20195;-75
2022/07/21 03:42:22;;;;;;;12.53;9.27;;;18.80;99.90;;;;;;5093546;28;20164;-75
2022/07/21 03:44:47;;;;;;;9.65;8.65;;;18.90;99.90;;;;;;5093625;28;20176;-75
2022/07/21 03:47:13;;;;;;;11.90;9.33;;;18.90;99.90;;;;;;5093404;28;20693;-75
2022/07/21 03:49:39;;;;;;;15.13;9.63;;;18.80;99.90;;;;;;5075486;28;20281;-76
2022/07/21 03:52:05;;;;;;;13.90;10.10;;;18.90;99.90;;;;;;5093735;28;20175;-75
2022/07/21 03:54:30;;;;;;;12.13;9.48;;;18.80;99.90;;;;;;5075144;28;20172;-75
2022/07/21 03:56:56;;;;;;;13.27;10.20;;;18.90;99.90;;;;;;5075355;28;20204;-75
2022/07/21 03:59:21;;;;;;;16.35;10.35;;;18.80;99.90;;;;;;5093130;28;20168;-75
2022/07/21 04:01:47;;;;;;;15.10;11.10;;;18.80;99.90;;;;;;5093253;28;20203;-75
2022/07/21 04:04:13;;;;;;;16.42;11.38;;;18.80;99.90;;;;;;5093239;28;20633;-75
2022/07/21 04:06:38;;;;;;;13.80;11.10;;;18.80;99.90;;;;;;5093133;28;20752;-75
2022/07/21 04:09:04;;;;;;;14.60;11.32;;;18.80;99.90;;;;;;5093316;28;20168;-75
2022/07/21 04:11:31;;;;;;;21.60;12.25;;;18.80;99.90;;;;;;5093208;28;20182;-75
2022/07/21 04:13:57;;;;;;;17.45;11.93;;;19.00;99.90;;;;;;5093272;28;20176;-75
2022/07/21 04:16:22;;;;;;;16.33;11.93;;;19.00;99.90;;;;;;5092703;28;20160;-75
2022/07/21 04:18:48;;;;;;;18.88;12.90;;;19.00;99.90;;;;;;5093297;28;20180;-75
2022/07/21 04:21:14;;;;;;;16.05;12.27;;;18.90;99.90;;;;;;5093100;28;20180;-75
2022/07/21 04:23:40;;;;;;;15.85;12.50;;;19.00;99.90;;;;;;5093091;28;20183;-76
2022/07/21 04:26:05;;;;;;;17.58;13.18;;;19.00;99.90;;;;;;5092956;28;20224;-75
2022/07/21 04:28:31;;;;;;;20.73;13.02;;;19.00;99.90;;;;;;5092920;28;20176;-75
2022/07/21 04:30:57;;;;;;;18.10;12.90;;;19.00;99.90;;;;;;5092805;28;20171;-75
2022/07/21 04:33:22;;;;;;;15.32;12.43;;;19.10;99.90;;;;;;5093398;28;20176;-75
2022/07/21 04:35:48;;;;;;;19.65;13.23;;;19.10;99.90;;;;;;5093015;28;20623;-75
2022/07/21 04:38:14;;;;;;;18.75;13.13;;;19.10;99.90;;;;;;5093182;28;20172;-75
2022/07/21 04:40:40;;;;;;;16.08;13.38;;;19.10;99.90;;;;;;5092822;28;20667;-75
2022/07/21 04:43:06;;;;;;;17.67;14.27;;;19.20;99.90;;;;;;5092993;28;20285;-75
2022/07/21 04:45:32;;;;;;;19.25;13.05;;;19.10;99.90;;;;;;5096560;28;20632;-75
2022/07/21 04:47:57;;;;;;;15.88;13.63;;;19.20;99.90;;;;;;5096959;28;20762;-75
2022/07/21 04:50:25;;;;;;;15.27;13.35;;;19.20;99.90;;;;;;5096829;28;20543;-75
2022/07/21 04:52:52;;;;;;;20.65;14.50;;;19.20;99.90;;;;;;5078638;28;20180;-75
2022/07/21 04:55:19;;;;;;;17.73;14.32;;;19.20;99.90;;;;;;5078261;28;20172;-75
2022/07/21 04:57:47;;;;;;;20.88;14.05;;;19.20;99.90;;;;;;5096468;28;20176;-75
2022/07/21 05:00:16;;;;;;;18.13;13.27;;;19.30;99.90;;;;;;5096336;28;20160;-75
2022/07/21 05:02:42;;;;;;;20.15;15.00;;;19.30;99.90;;;;;;5096556;28;20168;-75
2022/07/21 05:05:08;;;;;;;20.25;15.55;;;19.30;99.90;;;;;;5096217;28;20641;-76
2022/07/21 05:07:34;;;;;;;21.75;15.65;;;19.30;99.90;;;;;;5096026;28;20281;-74
2022/07/21 05:10:03;;;;;;;20.58;16.10;;;19.30;99.90;;;;;;5096480;28;20168;-74
2022/07/21 05:12:28;;;;;;;23.25;17.30;;;19.20;99.90;;;;;;5096269;28;20630;-74
2022/07/21 05:14:54;;;;;;;18.13;16.00;;;19.20;99.90;;;;;;5095981;28;20175;-74
2022/07/21 05:17:19;;;;;;;22.75;16.73;;;19.20;99.90;;;;;;5096475;28;20523;-74
2022/07/21 05:19:49;;;;;;;20.02;16.48;;;19.20;99.90;;;;;;5096542;28;20663;-75
2022/07/21 05:22:16;;;;;;;20.17;17.23;;;19.20;99.90;;;;;;5078286;28;20175;-75
2022/07/21 05:24:42;;;;;;;24.23;17.27;;;19.10;99.90;;;;;;5095861;28;20627;-76
2022/07/21 05:27:07;;;;;;;24.00;18.15;;;19.10;99.90;;;;;;5096224;28;20215;-75
2022/07/21 05:29:33;;;;;;;24.23;17.77;;;18.90;99.90;;;;;;5095470;28;20169;-75
2022/07/21 05:31:59;;;;;;;22.97;18.40;;;18.90;99.90;;;;;;5096179;28;20180;-75
2022/07/21 05:34:24;;;;;;;30.35;18.98;;;18.80;99.90;;;;;;5096079;28;20246;-75
2022/07/21 05:36:50;;;;;;;22.85;18.05;;;18.80;99.90;;;;;;5096232;28;20672;-75
2022/07/21 05:39:16;;;;;;;26.53;18.80;;;18.80;99.90;;;;;;5095658;28;20184;-75
2022/07/21 05:41:41;;;;;;;26.00;18.35;;;18.80;99.90;;;;;;5095908;28;20172;-75
2022/07/21 05:44:07;;;;;;;26.15;19.67;;;18.70;99.90;;;;;;5077101;28;20263;-75
2022/07/21 05:46:32;;;;;;;23.60;19.27;;;18.70;99.90;;;;;;5095477;28;20539;-75
2022/07/21 05:48:58;;;;;;;30.08;18.85;;;18.70;99.90;;;;;;5077078;28;20176;-75
2022/07/21 05:51:24;;;;;;;24.70;19.13;;;18.70;99.90;;;;;;5095887;28;20156;-75
2022/07/21 05:53:49;;;;;;;27.85;19.95;;;18.70;99.90;;;;;;5095355;28;20595;-77
2022/07/21 05:56:15;;;;;;;26.10;19.83;;;18.80;99.90;;;;;;5094808;28;20175;-76
2022/07/21 05:58:41;;;;;;;23.25;19.58;;;18.80;99.90;;;;;;5094828;28;20313;-75
2022/07/21 06:01:09;;;;;;;25.67;19.30;;;18.80;99.90;;;;;;5095331;28;20737;-75
2022/07/21 06:03:36;;;;;;;21.60;18.73;;;18.80;99.90;;;;;;5078036;28;20172;-75
2022/07/21 06:06:02;;;;;;;28.33;20.02;;;18.80;99.90;;;;;;5076702;28;20650;-75
2022/07/21 06:08:28;;;;;;;27.35;19.92;;;18.80;99.90;;;;;;5095025;28;20204;-75
2022/07/21 06:10:53;;;;;;;28.70;20.77;;;18.80;99.90;;;;;;5077442;28;20168;-74
2022/07/21 06:13:19;;;;;;;29.73;21.37;;;18.80;99.90;;;;;;5094930;28;20180;-75
2022/07/21 06:15:45;;;;;;;29.67;21.30;;;18.80;99.90;;;;;;5094393;28;20172;-75
2022/07/21 06:18:10;;;;;;;25.52;20.63;;;18.70;99.90;;;;;;5077021;28;20176;-75
2022/07/21 06:20:36;;;;;;;27.07;20.57;;;18.60;99.90;;;;;;5095009;28;20175;-74
2022/07/21 06:23:01;;;;;;;29.42;21.08;;;18.70;99.90;;;;;;5095186;28;20252;-75
2022/07/21 06:25:27;;;;;;;29.08;21.70;;;18.80;99.90;;;;;;5094951;28;20172;-75
2022/07/21 06:27:53;;;;;;;31.10;22.73;;;18.80;99.90;;;;;;5094717;28;20541;-75
2022/07/21 06:30:19;;;;;;;25.70;21.25;;;18.70;99.90;;;;;;5094873;28;20229;-76
2022/07/21 06:32:44;;;;;;;29.35;22.77;;;18.80;99.90;;;;;;5094996;28;20627;-75
2022/07/21 06:35:10;;;;;;;30.13;22.88;;;18.80;99.90;;;;;;5094698;28;20517;-75
2022/07/21 06:37:36;;;;;;;32.63;23.10;;;18.80;99.90;;;;;;5094346;28;20164;-76
2022/07/21 06:40:03;;;;;;;28.70;22.85;;;18.80;99.90;;;;;;5076304;28;20643;-75
2022/07/21 06:42:29;;;;;;;33.30;23.75;;;18.80;99.90;;;;;;5076347;28;20164;-74
2022/07/21 06:44:54;;;;;;;25.83;23.02;;;18.80;99.90;;;;;;5075843;28;20525;-76
2022/07/21 06:47:20;;;;;;;32.13;24.60;;;18.80;99.90;;;;;;5094183;28;20242;-75
2022/07/21 06:49:46;;;;;;;32.90;25.15;;;18.70;99.90;;;;;;5094219;28;20167;-75
2022/07/21 06:52:12;;;;;;;36.55;27.13;;;18.70;99.90;;;;;;5076252;28;20164;-75
2022/07/21 06:54:39;;;;;;;38.93;27.67;;;18.60;99.90;;;;;;5094441;28;20172;-74
2022/07/21 06:57:05;;;;;;;40.63;29.20;;;18.60;99.90;;;;;;5093801;28;20637;-75
2022/07/21 06:59:31;;;;;;;48.57;31.03;;;18.50;99.90;;;;;;5094109;28;20217;-74
2022/07/21 07:01:58;;;;;;;43.83;30.23;;;18.50;99.90;;;;;;5094152;28;20561;-74
2022/07/21 07:04:24;;;;;;;42.93;31.17;;;18.50;99.90;;;;;;5094180;28;20180;-75
2022/07/21 07:06:52;;;;;;;45.17;31.92;;;18.50;99.90;;;;;;5092885;28;20229;-76
2022/07/21 07:09:18;;;;;;;48.20;33.53;;;18.50;99.90;;;;;;5093929;28;20188;-76
2022/07/21 07:11:44;;;;;;;45.67;32.23;;;18.60;99.90;;;;;;5093825;28;20195;-75
2022/07/21 07:14:10;;;;;;;50.23;32.43;;;18.60;99.90;;;;;;5093801;28;20178;-75
2022/07/21 07:16:35;;;;;;;58.13;32.77;;;18.60;99.90;;;;;;5093723;28;20251;-75
2022/07/21 07:19:01;;;;;;;54.17;33.97;;;18.60;99.90;;;;;;5093187;28;20179;-75
2022/07/21 07:21:27;;;;;;;51.70;34.17;;;18.70;99.90;;;;;;5093854;28;20179;-76
2022/07/21 07:23:52;;;;;;;57.65;35.08;;;18.70;99.90;;;;;;5093832;28;20163;-75
2022/07/21 07:26:18;;;;;;;53.00;36.10;;;18.70;99.90;;;;;;5092949;28;20169;-75
2022/07/21 07:28:43;;;;;;;59.38;36.90;;;18.80;99.90;;;;;;5075767;28;20198;-75
2022/07/21 07:31:09;;;;;;;50.13;33.05;;;18.90;99.90;;;;;;5093676;28;20176;-75
2022/07/21 07:33:34;;;;;;;52.63;34.45;;;18.80;99.90;;;;;;5093614;28;20171;-75
2022/07/21 07:36:00;;;;;;;57.95;35.10;;;18.70;99.90;;;;;;5093667;28;20784;-76
2022/07/21 07:38:26;;;;;;;56.33;36.60;;;18.80;99.90;;;;;;5075606;28;20180;-76
2022/07/21 07:40:51;;;;;;;60.33;36.13;;;18.70;99.90;;;;;;5093278;28;20190;-76
2022/07/21 07:43:17;;;;;;;51.42;34.55;;;18.80;99.90;;;;;;5093321;28;20529;-76
2022/07/21 07:45:43;;;;;;;59.22;34.88;;;18.80;99.90;;;;;;5093308;28;20172;-74
2022/07/21 07:48:08;;;;;;;52.80;34.63;;;18.80;99.90;;;;;;5093405;28;20207;-76
2022/07/21 07:50:34;;;;;;;51.80;33.83;;;18.80;99.90;;;;;;5093532;28;20551;-76
2022/07/21 07:52:59;;;;;;;51.80;33.72;;;18.80;99.90;;;;;;5093191;28;20179;-76
2022/07/21 07:55:25;;;;;;;52.70;34.40;;;18.90;99.90;;;;;;5092497;28;20302;-75
2022/07/21 07:57:51;;;;;;;49.67;34.15;;;18.80;99.90;;;;;;5092709;28;20168;-75
2022/07/21 08:00:18;;;;;;;47.40;32.60;;;18.90;99.90;;;;;;5093472;28;20172;-75
2022/07/21 08:02:45;;;;;;;49.20;33.53;;;19.00;99.90;;;;;;5092649;28;20234;-76
2022/07/21 08:05:11;;;;;;;50.00;32.67;;;19.00;99.90;;;;;;5092107;28;20222;-75
2022/07/21 08:07:38;;;;;;;46.05;30.98;;;19.00;99.90;;;;;;5092708;28;20705;-75
2022/07/21 08:10:09;;;;;;;41.47;30.33;;;19.10;99.90;;;;;;5092920;28;20313;-74
2022/07/21 08:12:35;;;;;;;45.10;30.92;;;19.00;99.90;;;;;;5092637;28;20175;-75
2022/07/21 08:15:00;;;;;;;46.78;31.20;;;18.90;99.90;;;;;;5075047;28;20198;-75
2022/07/21 08:17:26;;;;;;;45.83;32.33;;;19.00;99.90;;;;;;5092957;28;20172;-75
2022/07/21 08:19:52;;;;;;;48.65;31.73;;;19.10;99.90;;;;;;5092311;28;20175;-75
2022/07/21 08:22:17;;;;;;;41.67;29.77;;;19.10;99.90;;;;;;5092487;28;20168;-76
2022/07/21 08:24:43;;;;;;;43.15;29.58;;;19.10;99.90;;;;;;5093082;28;20175;-77
2022/07/21 08:27:09;;;;;;;41.20;28.80;;;19.10;99.90;;;;;;5075015;28;20545;-77
2022/07/21 08:29:35;;;;;;;41.28;29.80;;;19.20;99.90;;;;;;5092463;28;20175;-75
2022/07/21 08:32:00;;;;;;;39.72;27.48;;;19.20;99.90;;;;;;5075108;28;20637;-76
2022/07/21 08:34:27;;;;;;;38.17;27.73;;;19.20;99.90;;;;;;5074709;28;20606;-74
2022/07/21 08:36:53;;;;;;;39.33;26.23;;;19.20;99.90;;;;;;5092735;28;20167;-74
2022/07/21 08:39:19;;;;;;;35.33;25.50;;;19.20;99.90;;;;;;5093025;28;20195;-75
2022/07/21 08:41:44;;;;;;;29.67;22.65;;;19.10;99.90;;;;;;5057602;28;20175;-75
2022/07/21 08:44:10;;;;;;;23.40;19.83;;;19.00;99.90;;;;;;5092955;28;20494;-74
2022/07/21 08:46:40;;;;;;;24.90;20.63;;;18.90;99.90;;;;;;5092869;28;20227;-74
2022/07/21 08:49:07;;;;;;;29.20;22.10;;;18.90;99.90;;;;;;5092321;28;20642;-73
2022/07/21 08:51:34;;;;;;;23.30;19.95;;;19.00;99.90;;;;;;5092033;28;20186;-73
2022/07/21 08:54:00;;;;;;;23.45;18.77;;;19.10;99.90;;;;;;5092226;28;20180;-73
2022/07/21 08:56:26;;;;;;;20.45;17.55;;;19.10;99.90;;;;;;5092807;28;20168;-74
2022/07/21 08:58:51;;;;;;;19.48;16.13;;;19.10;99.90;;;;;;5092242;28;20174;-73
2022/07/21 09:01:17;;;;;;;18.08;15.13;;;19.10;99.90;;;;;;5092613;28;20619;-73
2022/07/21 09:03:43;;;;;;;16.15;14.27;;;19.00;99.90;;;;;;5092491;28;20172;-73
2022/07/21 09:06:12;;;;;;;16.65;14.95;;;19.00;99.90;;;;;;5091813;28;20668;-74
2022/07/21 09:08:43;;;;;;;18.58;15.18;;;19.00;99.90;;;;;;5092192;28;20231;-73
2022/07/21 09:11:11;;;;;;;18.10;14.50;;;19.10;99.90;;;;;;5074141;28;20247;-75
2022/07/21 09:13:38;;;;;;;16.27;14.55;;;19.20;99.90;;;;;;5091675;28;20730;-74
2022/07/21 09:16:04;;;;;;;14.45;13.10;;;19.30;99.90;;;;;;5092177;28;20508;-73
2022/07/21 09:18:30;;;;;;;14.63;13.05;;;19.30;99.90;;;;;;5092446;28;20171;-73
2022/07/21 09:20:57;;;;;;;15.70;13.73;;;19.40;99.90;;;;;;5091751;28;20171;-74
2022/07/21 09:23:23;;;;;;;15.00;13.60;;;19.40;99.90;;;;;;5092440;28;20183;-74
2022/07/21 09:25:55;;;;;;;12.15;10.95;;;19.60;99.90;;;;;;5092719;28;20256;-74
2022/07/21 09:28:23;;;;;;;12.15;10.90;;;19.40;99.90;;;;;;5092163;28;20294;-74
2022/07/21 09:31:06;;;;;;;11.85;10.15;;;19.50;99.90;;;;;;5093674;28;20206;-74
2022/07/21 09:33:33;;;;;;;10.25;9.10;;;19.60;99.90;;;;;;5095958;28;20221;-73
2022/07/21 09:36:01;;;;;;;10.43;9.30;;;19.70;99.90;;;;;;5095196;28;20164;-75
2022/07/21 09:38:29;;;;;;;8.95;8.18;;;19.70;99.90;;;;;;5095792;28;20183;-73
2022/07/21 09:40:56;;;;;;;13.52;8.85;;;19.60;99.90;;;;;;5095727;28;20275;-73
2022/07/21 09:43:55;;;;;;;8.32;7.53;;;19.30;99.90;;;;;;5095624;28;20232;-73
2022/07/21 09:46:29;;;;;;;9.48;8.48;;;19.30;99.90;;;;;;4993804;28;20322;-74
2022/07/21 09:49:04;;;;;;;9.77;7.93;;;19.30;99.90;;;;;;4993712;28;20178;-73
2022/07/21 09:51:37;;;;;;;10.05;8.48;;;19.20;99.90;;;;;;4993939;28;20334;-74
2022/07/21 09:54:04;;;;;;;10.15;8.82;;;19.40;99.90;;;;;;4993373;28;20199;-72
2022/07/21 09:56:32;;;;;;;9.73;8.48;;;19.40;99.90;;;;;;4977341;28;20736;-73
2022/07/21 09:58:59;;;;;;;9.07;8.35;;;19.50;99.90;;;;;;4993317;28;20315;-74
2022/07/21 10:01:26;;;;;;;9.13;8.25;;;19.60;99.90;;;;;;4993677;28;20635;-74
2022/07/21 10:03:54;;;;;;;7.97;7.25;;;19.50;99.90;;;;;;4993146;28;20199;-73
2022/07/21 10:06:23;;;;;;;9.85;7.47;;;19.70;99.90;;;;;;4992368;28;20223;-74
2022/07/21 10:08:49;;;;;;;8.52;7.72;;;19.80;99.90;;;;;;4993415;28;20188;-74
2022/07/21 10:11:15;;;;;;;8.35;7.45;;;19.90;99.90;;;;;;4993127;28;20563;-73
2022/07/21 10:13:41;;;;;;;8.90;7.28;;;20.00;99.90;;;;;;4993546;28;20556;-74
2022/07/21 10:16:10;;;;;;;7.95;7.05;;;19.80;99.90;;;;;;4993256;28;20179;-73
2022/07/21 10:18:58;;;;;;;8.43;7.25;;;20.00;99.90;;;;;;4992539;28;20582;-74
2022/07/21 10:21:52;;;;;;;8.40;7.60;;;19.80;99.90;;;;;;5017436;28;20185;-74
2022/07/21 10:24:19;;;;;;;9.35;7.13;;;19.90;99.90;;;;;;5074517;28;20179;-74
2022/07/21 10:27:01;;;;;;;10.70;7.50;;;20.20;99.90;;;;;;5073563;28;20655;-74
2022/07/21 10:29:48;;;;;;;9.80;7.88;;;20.20;99.90;;;;;;5073423;28;20290;-74
2022/07/21 10:32:19;;;;;;;8.55;7.35;;;20.30;99.90;;;;;;5074527;28;20168;-74
2022/07/21 10:34:45;;;;;;;8.43;7.63;;;20.30;99.90;;;;;;5074093;28;20188;-74
2022/07/21 10:37:31;;;;;;;8.45;7.30;;;20.40;99.90;;;;;;5074288;28;20206;-74
2022/07/21 10:39:57;;;;;;;10.43;7.65;;;20.40;99.90;;;;;;5074332;28;20231;-74
2022/07/21 10:42:22;;;;;;;10.38;8.50;;;20.20;99.90;;;;;;5074373;28;20204;-74
2022/07/21 10:44:48;;;;;;;10.25;8.20;;;20.10;99.90;;;;;;5074120;28;20276;-74
2022/07/21 10:47:20;;;;;;;12.57;8.25;;;20.00;99.90;;;;;;5073951;28;20196;-75
2022/07/21 10:49:45;;;;;;;12.85;8.35;;;19.90;99.90;;;;;;5073857;28;20169;-74
2022/07/21 10:52:38;;;;;;;11.68;7.93;;;19.80;99.90;;;;;;5074081;28;20522;-74
2022/07/21 10:55:26;;;;;;;15.57;10.57;;;19.50;99.90;;;;;;5073978;28;20213;-74
2022/07/21 10:58:12;;;;;;;10.18;8.27;;;19.70;99.90;;;;;;5073190;28;20248;-73
2022/07/21 11:00:38;;;;;;;11.38;8.30;;;19.70;99.90;;;;;;5073780;28;20230;-75
2022/07/21 11:03:15;;;;;;;13.68;8.27;;;20.00;99.90;;;;;;5073621;28;20180;-75
2022/07/21 11:06:09;;;;;;;9.25;7.00;;;20.40;99.90;;;;;;5073808;28;20168;-75
2022/07/21 11:08:37;;;;;;;11.75;8.20;;;20.80;94.30;;;;;;5073723;28;20248;-76
2022/07/21 11:11:27;;;;;;;11.70;7.35;;;21.20;94.50;;;;;;5073376;28;20651;-76
2022/07/21 11:14:15;;;;;;;8.57;7.13;;;21.70;80.40;;;;;;5073197;28;20284;-76
2022/07/21 11:16:52;;;;;;;10.75;7.50;;;21.60;50.90;;;;;;5073109;28;20697;-76
2022/07/21 11:19:41;;;;;;;11.00;7.40;;;21.70;50.00;;;;;;5073788;28;20207;-76
2022/07/21 11:22:09;;;;;;;10.05;8.00;;;21.60;64.20;;;;;;5072439;28;20223;-76
2022/07/21 11:24:35;;;;;;;13.38;8.23;;;21.60;53.30;;;;;;5071990;28;20173;-76
2022/07/21 11:27:13;;;;;;;8.90;7.30;;;21.70;58.70;;;;;;5073266;28;20229;-75
2022/07/21 11:29:41;;;;;;;8.93;6.95;;;21.90;48.40;;;;;;5073202;28;20164;-76
2022/07/21 11:32:08;;;;;;;12.23;7.70;;;21.80;35.10;;;;;;5072691;28;20247;-76
2022/07/21 11:34:41;;;;;;;11.65;7.43;;;21.20;59.40;;;;;;5073388;28;20168;-76
2022/07/21 11:37:08;;;;;;;12.18;7.68;;;21.00;71.30;;;;;;5072999;28;20175;-74
2022/07/21 11:39:34;;;;;;;11.10;7.57;;;21.00;91.10;;;;;;5072851;28;20192;-75
2022/07/21 11:42:15;;;;;;;8.20;7.30;;;20.90;80.50;;;;;;5072898;28;20168;-74
2022/07/21 11:44:42;;;;;;;12.48;7.55;;;20.90;92.90;;;;;;5073021;28;20187;-74
2022/07/21 11:47:11;;;;;;;11.30;7.72;;;20.70;88.30;;;;;;5072648;28;20204;-75
2022/07/21 11:49:36;;;;;;;9.93;6.80;;;20.70;92.70;;;;;;5072522;28;20623;-74
2022/07/21 11:52:08;;;;;;;8.63;6.57;;;20.70;88.70;;;;;;5073004;28;20169;-74
2022/07/21 11:54:38;;;;;;;10.75;7.15;;;20.80;86.10;;;;;;5072520;28;20165;-74
2022/07/21 11:57:06;;;;;;;8.15;6.60;;;20.90;91.30;;;;;;5072529;28;20255;-74
2022/07/21 11:59:33;;;;;;;10.65;6.28;;;21.00;75.80;;;;;;5072769;28;20172;-75
2022/07/21 12:02:03;;;;;;;10.77;5.45;;;21.00;66.80;;;;;;5072695;28;20238;-75
2022/07/21 12:04:30;;;;;;;9.00;4.95;;;21.00;63.80;;;;;;5072797;28;20176;-75
2022/07/21 12:06:56;;;;;;;8.13;5.32;;;21.20;47.60;;;;;;5082285;28;20298;-75
2022/07/21 12:09:22;;;;;;;6.18;4.90;;;21.30;41.10;;;;;;5092996;28;20172;-75
2022/07/21 12:11:47;;;;;;;5.28;4.75;;;21.50;33.90;;;;;;5092996;28;20168;-76
2022/07/21 12:14:13;;;;;;;10.02;4.75;;;21.60;24.20;;;;;;5092497;28;20172;-75
2022/07/21 12:16:53;;;;;;;6.20;4.55;;;21.70;24.10;;;;;;5093053;28;20623;-75
2022/07/21 12:19:19;;;;;;;7.35;4.13;;;21.90;21.50;;;;;;5092825;28;20172;-74
2022/07/21 12:21:50;;;;;;;6.72;4.63;;;21.90;12.00;;;;;;5092406;28;20167;-74
2022/07/21 12:24:17;;;;;;;6.80;4.63;;;21.80;7.70;;;;;;5093124;28;20179;-75
2022/07/21 12:26:43;;;;;;;8.50;4.72;;;21.80;19.80;;;;;;5092696;28;20643;-74
2022/07/21 12:29:08;;;;;;;8.32;4.72;;;21.90;21.60;;;;;;5092390;28;20255;-75
2022/07/21 12:31:35;;;;;;;8.30;4.38;;;21.70;12.70;;;;;;5093081;28;20515;-75
2022/07/21 12:34:14;;;;;;;8.75;4.93;;;21.60;19.70;;;;;;5092993;28;20627;-75
2022/07/21 12:36:41;;;;;;;7.55;5.05;;;21.70;25.20;;;;;;5092092;28;20186;-76